NCAR-RAP Real-Time Weather Data

Output produced by METARs form (17 November 2017  17:46 UTC)
found at http://weather.rap.ucar.edu/surface/
 
Conditions at: KTPA observed 17 November 2017  16:53 UTC
Temperature: 24.4°C (76°F)
Dewpoint: 12.2°C (54°F) [RH = 47%]
Pressure (altimeter): 30.10 inches Hg (1019.4 mb)
[Sea-level pressure: 1019.3 mb]
Winds: calm
Visibility: 10 or more miles (16+ km)
Ceiling: at least 12,000 feet AGL
Clouds: sky clear below 12,000 feet AGL
Present Weather: no significant weather observed at this time
KTPA 171653Z 00000KT 10SM CLR 24/12 A3010 RMK AO2 SLP193 T02440122

Conditions at: KTPA observed 17 November 2017  15:53 UTC
Temperature: 22.8°C (73°F)
Dewpoint: 11.7°C (53°F) [RH = 50%]
Pressure (altimeter): 30.12 inches Hg (1020.1 mb)
[Sea-level pressure: 1019.7 mb]
Winds: variable direction winds at 6 MPH (5 knots; 2.6 m/s)
Visibility: 10 or more miles (16+ km)
Ceiling: at least 12,000 feet AGL
Clouds: sky clear below 12,000 feet AGL
Present Weather: no significant weather observed at this time
KTPA 171553Z VRB05KT 10SM CLR 23/12 A3012 RMK AO2 SLP197 T02280117

Conditions at: KTPA observed 17 November 2017  14:53 UTC
Temperature: 21.1°C (70°F)
Dewpoint: 11.1°C (52°F) [RH = 53%]
Pressure (altimeter): 30.13 inches Hg (1020.4 mb)
[Sea-level pressure: 1020.1 mb]
Winds: from the NE (50 degrees) at 9 MPH (8 knots; 4.2 m/s)
Visibility: 10 or more miles (16+ km)
Ceiling: at least 12,000 feet AGL
Clouds: sky clear below 12,000 feet AGL
Present Weather: no significant weather observed at this time
KTPA 171453Z 05008KT 10SM CLR 21/11 A3013 RMK AO2 SLP201 T02110111 51010

Conditions at: KTPA observed 17 November 2017  13:53 UTC
Temperature: 18.9°C (66°F)
Dewpoint: 10.6°C (51°F) [RH = 59%]
Pressure (altimeter): 30.12 inches Hg (1020.1 mb)
[Sea-level pressure: 1019.8 mb]
Winds: from the NE (40 degrees) at 7 MPH (6 knots; 3.1 m/s)
Visibility: 10 or more miles (16+ km)
Ceiling: at least 12,000 feet AGL
Clouds: few clouds at 5000 feet AGL
Present Weather: no significant weather observed at this time
KTPA 171353Z 04006KT 10SM FEW050 19/11 A3012 RMK AO2 SLP198 T01890106

Conditions at: KTPA observed 17 November 2017  12:53 UTC
Temperature: 16.7°C (62°F)
Dewpoint: 10.6°C (51°F) [RH = 67%]
Pressure (altimeter): 30.11 inches Hg (1019.7 mb)
[Sea-level pressure: 1019.6 mb]
Winds: from the NE (40 degrees) at 6 MPH (5 knots; 2.6 m/s)
Visibility: 10 or more miles (16+ km)
Ceiling: at least 12,000 feet AGL
Clouds: few clouds at 4500 feet AGL
Present Weather: no significant weather observed at this time
KTPA 171253Z 04005KT 10SM FEW045 17/11 A3011 RMK AO2 SLP196 T01670106

Conditions at: KTPA observed 17 November 2017  11:53 UTC
Temperature: 15.0°C (59°F)
Dewpoint: 10.6°C (51°F) [RH = 75%]
Pressure (altimeter): 30.10 inches Hg (1019.4 mb)
[Sea-level pressure: 1019.0 mb]
Winds: from the NE (40 degrees) at 5 MPH (4 knots; 2.1 m/s)
Visibility: 10 or more miles (16+ km)
Ceiling: at least 12,000 feet AGL
Clouds: sky clear below 12,000 feet AGL
Present Weather: no significant weather observed at this time
KTPA 171153Z 04004KT 10SM CLR 15/11 A3010 RMK AO2 SLP190 T01500106 10167 20144 53005

Conditions at: KTPA observed 17 November 2017  10:53 UTC
Temperature: 15.6°C (60°F)
Dewpoint: 11.1°C (52°F) [RH = 75%]
Pressure (altimeter): 30.08 inches Hg (1018.7 mb)
[Sea-level pressure: 1018.7 mb]
Winds: from the NE (50 degrees) at 5 MPH (4 knots; 2.1 m/s)
Visibility: 10 or more miles (16+ km)
Ceiling: at least 12,000 feet AGL
Clouds: few clouds at 4500 feet AGL
Present Weather: no significant weather observed at this time
KTPA 171053Z 05004KT 10SM FEW045 16/11 A3008 RMK AO2 SLP187 T01560111

Conditions at: KTPA observed 17 November 2017  09:53 UTC
Temperature: 15.0°C (59°F)
Dewpoint: 11.1°C (52°F) [RH = 77%]
Pressure (altimeter): 30.08 inches Hg (1018.7 mb)
[Sea-level pressure: 1018.6 mb]
Winds: variable direction winds at 5 MPH (4 knots; 2.1 m/s)
Visibility: 10 or more miles (16+ km)
Ceiling: at least 12,000 feet AGL
Clouds: few clouds at 4500 feet AGL
Present Weather: no significant weather observed at this time
KTPA 170953Z VRB04KT 10SM FEW045 15/11 A3008 RMK AO2 SLP186 T01500111

Conditions at: KTPA observed 17 November 2017  08:53 UTC
Temperature: 15.0°C (59°F)
Dewpoint: 11.1°C (52°F) [RH = 77%]
Pressure (altimeter): 30.08 inches Hg (1018.7 mb)
[Sea-level pressure: 1018.5 mb]
Winds: from the NNE (20 degrees) at 5 MPH (4 knots; 2.1 m/s)
Visibility: 10 or more miles (16+ km)
Ceiling: at least 12,000 feet AGL
Clouds: few clouds at 4500 feet AGL
Present Weather: no significant weather observed at this time
KTPA 170853Z 02004KT 10SM FEW045 15/11 A3008 RMK AO2 SLP185 T01500111 58000

Conditions at: KTPA observed 17 November 2017  07:53 UTC
Temperature: 15.0°C (59°F)
Dewpoint: 10.6°C (51°F) [RH = 75%]
Pressure (altimeter): 30.08 inches Hg (1018.7 mb)
[Sea-level pressure: 1018.6 mb]
Winds: from the N (10 degrees) at 3 MPH (3 knots; 1.6 m/s)
Visibility: 10 or more miles (16+ km)
Ceiling: at least 12,000 feet AGL
Clouds: sky clear below 12,000 feet AGL
Present Weather: no significant weather observed at this time
KTPA 170753Z 01003KT 10SM CLR 15/11 A3008 RMK AO2 SLP186 T01500106

Conditions at: KTPA observed 17 November 2017  06:53 UTC
Temperature: 16.1°C (61°F)
Dewpoint: 10.6°C (51°F) [RH = 70%]
Pressure (altimeter): 30.08 inches Hg (1018.7 mb)
[Sea-level pressure: 1018.5 mb]
Winds: from the ENE (60 degrees) at 5 MPH (4 knots; 2.1 m/s)
Visibility: 10 or more miles (16+ km)
Ceiling: at least 12,000 feet AGL
Clouds: sky clear below 12,000 feet AGL
Present Weather: no significant weather observed at this time
KTPA 170653Z 06004KT 10SM CLR 16/11 A3008 RMK AO2 SLP185 T01610106

Conditions at: KTPA observed 17 November 2017  05:53 UTC
Temperature: 16.7°C (62°F)
Dewpoint: 10.6°C (51°F) [RH = 67%]
Pressure (altimeter): 30.08 inches Hg (1018.7 mb)
[Sea-level pressure: 1018.6 mb]
Winds: from the NE (40 degrees) at 6 MPH (5 knots; 2.6 m/s)
Visibility: 10 or more miles (16+ km)
Ceiling: at least 12,000 feet AGL
Clouds: sky clear below 12,000 feet AGL
Present Weather: no significant weather observed at this time
KTPA 170553Z 04005KT 10SM CLR 17/11 A3008 RMK AO2 SLP186 T01670106 10194 20167 58000

Conditions at: KTPA observed 17 November 2017  04:53 UTC
Temperature: 17.8°C (64°F)
Dewpoint: 10.0°C (50°F) [RH = 60%]
Pressure (altimeter): 30.09 inches Hg (1019.0 mb)
[Sea-level pressure: 1018.8 mb]
Winds: from the ENE (60 degrees) at 5 MPH (4 knots; 2.1 m/s)
Visibility: 10 or more miles (16+ km)
Ceiling: at least 12,000 feet AGL
Clouds: sky clear below 12,000 feet AGL
Present Weather: no significant weather observed at this time
KTPA 170453Z 06004KT 10SM CLR 18/10 A3009 RMK AO2 SLP188 T01780100 402560161

Conditions at: KTPA observed 17 November 2017  03:53 UTC
Temperature: 17.8°C (64°F)
Dewpoint: 10.0°C (50°F) [RH = 60%]
Pressure (altimeter): 30.08 inches Hg (1018.7 mb)
[Sea-level pressure: 1018.7 mb]
Winds: from the NE (40 degrees) at 6 MPH (5 knots; 2.6 m/s)
Visibility: 10 or more miles (16+ km)
Ceiling: at least 12,000 feet AGL
Clouds: sky clear below 12,000 feet AGL
Present Weather: no significant weather observed at this time
KTPA 170353Z 04005KT 10SM CLR 18/10 A3008 RMK AO2 SLP187 T01780100

Conditions at: KTPA observed 17 November 2017  02:53 UTC
Temperature: 17.8°C (64°F)
Dewpoint: 11.1°C (52°F) [RH = 65%]
Pressure (altimeter): 30.08 inches Hg (1018.7 mb)
[Sea-level pressure: 1018.6 mb]
Winds: from the N (10 degrees) at 5 MPH (4 knots; 2.1 m/s)
Visibility: 10 or more miles (16+ km)
Ceiling: at least 12,000 feet AGL
Clouds: sky clear below 12,000 feet AGL
Present Weather: no significant weather observed at this time
KTPA 170253Z 01004KT 10SM CLR 18/11 A3008 RMK AO2 SLP186 T01780111 53012

Conditions at: KTPA observed 17 November 2017  01:53 UTC
Temperature: 17.2°C (63°F)
Dewpoint: 11.1°C (52°F) [RH = 67%]
Pressure (altimeter): 30.07 inches Hg (1018.4 mb)
[Sea-level pressure: 1018.2 mb]
Winds: from the N (350 degrees) at 6 MPH (5 knots; 2.6 m/s)
Visibility: 10 or more miles (16+ km)
Ceiling: at least 12,000 feet AGL
Clouds: sky clear below 12,000 feet AGL
Present Weather: no significant weather observed at this time
KTPA 170153Z 35005KT 10SM CLR 17/11 A3007 RMK AO2 SLP182 T01720111

Conditions at: KTPA observed 17 November 2017  00:53 UTC
Temperature: 18.9°C (66°F)
Dewpoint: 11.7°C (53°F) [RH = 63%]
Pressure (altimeter): 30.06 inches Hg (1018.0 mb)
[Sea-level pressure: 1017.8 mb]
Winds: from the N (350 degrees) at 7 MPH (6 knots; 3.1 m/s)
Visibility: 10 or more miles (16+ km)
Ceiling: at least 12,000 feet AGL
Clouds: sky clear below 12,000 feet AGL
Present Weather: no significant weather observed at this time
KTPA 170053Z 35006KT 10SM CLR 19/12 A3006 RMK AO2 SLP178 T01890117

Conditions at: KTPA observed 16 November 2017  23:53 UTC
Temperature: 18.9°C (66°F)
Dewpoint: 11.7°C (53°F) [RH = 63%]
Pressure (altimeter): 30.05 inches Hg (1017.7 mb)
[Sea-level pressure: 1017.5 mb]
Winds: from the N (350 degrees) at 8 MPH (7 knots; 3.6 m/s)
Visibility: 10 or more miles (16+ km)
Ceiling: at least 12,000 feet AGL
Clouds: sky clear below 12,000 feet AGL
Present Weather: no significant weather observed at this time
KTPA 162353Z 35007KT 10SM CLR 19/12 A3005 RMK AO2 SLP175 T01890117 10256 20189 53018

Conditions at: KTPA observed 16 November 2017  22:53 UTC
Temperature: 20.6°C (69°F)
Dewpoint: 11.7°C (53°F) [RH = 57%]
Pressure (altimeter): 30.02 inches Hg (1016.7 mb)
[Sea-level pressure: 1016.6 mb]
Winds: from the N (350 degrees) at 6 MPH (5 knots; 2.6 m/s)
Visibility: 10 or more miles (16+ km)
Ceiling: at least 12,000 feet AGL
Clouds: sky clear below 12,000 feet AGL
Present Weather: no significant weather observed at this time
KTPA 162253Z 35005KT 10SM CLR 21/12 A3002 RMK AO2 SLP166 T02060117

Conditions at: KTPA observed 16 November 2017  21:53 UTC
Temperature: 24.4°C (76°F)
Dewpoint: 11.1°C (52°F) [RH = 43%]
Pressure (altimeter): 30.01 inches Hg (1016.3 mb)
[Sea-level pressure: 1016.0 mb]
Winds: from the N (10 degrees) at 7 MPH (6 knots; 3.1 m/s)
Visibility: 10 or more miles (16+ km)
Ceiling: at least 12,000 feet AGL
Clouds: sky clear below 12,000 feet AGL
Present Weather: no significant weather observed at this time
KTPA 162153Z 01006KT 10SM CLR 24/11 A3001 RMK AO2 SLP160 T02440111

Conditions at: KTPA observed 16 November 2017  20:53 UTC
Temperature: 25.0°C (77°F)
Dewpoint: 10.6°C (51°F) [RH = 40%]
Pressure (altimeter): 29.99 inches Hg (1015.7 mb)
[Sea-level pressure: 1015.6 mb]
Winds: from the N (360 degrees) at 9 MPH (8 knots; 4.2 m/s)
Visibility: 10 or more miles (16+ km)
Ceiling: at least 12,000 feet AGL
Clouds: sky clear below 12,000 feet AGL
Present Weather: no significant weather observed at this time
KTPA 162053Z 36008KT 10SM CLR 25/11 A2999 RMK AO2 SLP156 T02500106 55008

Conditions at: KTPA observed 16 November 2017  19:53 UTC
Temperature: 25.6°C (78°F)
Dewpoint: 11.1°C (52°F) [RH = 40%]
Pressure (altimeter): 29.99 inches Hg (1015.7 mb)
[Sea-level pressure: 1015.4 mb]
Winds: from the NNW (340 degrees) at 8 MPH (7 knots; 3.6 m/s)
Visibility: 10 or more miles (16+ km)
Ceiling: at least 12,000 feet AGL
Clouds: few clouds at 5500 feet AGL
Present Weather: no significant weather observed at this time
KTPA 161953Z 34007KT 10SM FEW055 26/11 A2999 RMK AO2 SLP154 T02560111

Conditions at: KTPA observed 16 November 2017  18:53 UTC
Temperature: 25.0°C (77°F)
Dewpoint: 11.7°C (53°F) [RH = 43%]
Pressure (altimeter): 30.00 inches Hg (1016.0 mb)
[Sea-level pressure: 1015.8 mb]
Winds: from the N (350 degrees) at 13 MPH (11 knots; 5.7 m/s)
Visibility: 10 or more miles (16+ km)
Ceiling: at least 12,000 feet AGL
Clouds: few clouds at 5000 feet AGL
few clouds at 25000 feet AGL
Present Weather: no significant weather observed at this time
KTPA 161853Z 35011KT 10SM FEW050 FEW250 25/12 A3000 RMK AO2 SLP158 T02500117

Conditions at: KTPA observed 16 November 2017  17:53 UTC
Temperature: 24.4°C (76°F)
Dewpoint: 13.3°C (56°F) [RH = 50%]
Pressure (altimeter): 30.02 inches Hg (1016.7 mb)
[Sea-level pressure: 1016.4 mb]
Winds: from the N (360 degrees) at 12 MPH (10 knots; 5.2 m/s)
Visibility: 10 or more miles (16+ km)
Ceiling: at least 12,000 feet AGL
Clouds: few clouds at 3200 feet AGL
few clouds at 25000 feet AGL
Present Weather: no significant weather observed at this time
KTPA 161753Z 36010KT 10SM FEW032 FEW250 24/13 A3002 RMK AO2 SLP164 T02440133 10244 20167 58022